Hovedside
METAR-TAF:

METAR-TAF

Lufthavner :

Växjö lufthavn

Växjö, Sverige

breddegrad: 56-51N, lengdegrad: 014-50E, høyde over havet: 199 m

Gjeldene værobservasjon

Denne rapporten ble laget for 36 minutter siden, klokken 04:20 UTC
Vind 14 kt fra Vest-sørvest med vindkast opp mot 25 kt
Temperatur 13°C
Luftfuktighet 88%
Trykk 1005 hPa
Sikt 10 km eller mer
Spredte skyer i en høyde av 1300 ft
Brutte skyer i en høyde av 2000 ft
lett regn

METAR: ESMX 210420Z 24014G25KT 9999 -RA SCT013 BKN020 13/11 Q1005

Tid: 06:56 (04:56 UTC)

Varsel

Denne rapporten ble laget for 1 time og 26 minutter siden, klokken 03:30 UTC
Varsel gyldig fra 21. klokken 04 UTC til 21. klokken 12 UTC
Vind 12 kt fra Sørvest
Sikt 10 km eller mer
Brutte skyer i en høyde av 1300 ft
Blir
fra 21. klokken 04 UTC til 21. klokken 06 UTC
Spredte skyer i en høyde av 2500 ft

TAF: ESMX 210330Z 2104/2112 23012KT 9999 BKN013 BECMG 2104/2106 SCT025

Værobservasjoner og værvarsel for over 4000 flyplasser (METAR- og TAF-rapporter).

Tilgjengelige stasjoner er representert av de røde og gule prikkene på kartet.

Hold musepekeren over prikken for å se navnet på stasjonen.

Klikk så for å se værobservasjoner og -varsler.

For å forandre kartet kan du klikke på den grønne knappen med svart kryss for å zoome inn, på den grønne knappen med strek for å zoome ut, eller på de grønne pilene for å se tilstøtende kart.


METAR-TAF: